The Eastern Iowa Airport
KCID : now visible

Airfield :











YOU CAN JOIN US ON...

 
LOGIN :

Register | Disclaimer

   EN    FR    IT 

 









Legend :    VFR   Marginal VFR   IFR   Intensive IFR   Very Intensive IFR
Visi :
Ceiling :
>= 8 km
>= 3000ft
5 to 8 km
1000 to 3000 ft
1500m to 5 km
500 to 1000 ft
800 to 1500m
200 to 500 ft
< 800m
< 200 ft
Symbols :   Thunderstorms  Fog  Heavy snow  Heavy precipitations  Wind > 20 kt







- Airport Elevation : 869 ft
- IATA code : CID


KCID - The Eastern Iowa

CURRENT METAR :
  • 210352Z 16007KT 10SM CLR 24/20 A3001 RMK AO2 SLP158 T02390200

EXPIRED METARs :
  • 210252Z 13009KT 9SM BKN100 24/20 A3002 RMK AO2 SLP158 T02390200 50003
  • 210152Z 12008KT 9SM CLR 24/20 A3002 RMK AO2 SLP162 T02390200

TAF KCID
Valid from the 21 at 00:00 until the 22 at 00:00 UTC


202320Z 2100/2124 16008KT P6SM SCT250
PROB30 2110/2112 4SM TSRA BKN025CB
FM211200 18012KT 4SM -SHRA BR BKN007 OVC015
FM211600 19014G20KT 6SM BR OVC015
PROB30 2120/2124 3SM TSRA BR OVC008CB
No reported NOTAMs for that airfield.



MET'MAP, your aeronautical weather chart ! - Copyright ORBIFLY December 2007 - Disclaimer

ORBIFLY MET'MAP TEAM :

Programming & Development : Alexandra Zaïnal
Concept & Development : Baudouin d'Aumeries
Co-Development & Prog : Marc-Olivier Méhu
Technical & hardware support : Manuel Goepfert

Contact : metmap@orbifly.com




SOURCES & CREDITS :

   NOAA       Earth
Advisory